sensor_id;sensor_type;location;lat;lon;timestamp;P1;durP1;ratioP1;P2;durP2;ratioP2
80104;SDS011;69865;47.648;19.030;2024-02-26T00:00:08;34.77;;;33.83;;
80104;SDS011;69865;47.648;19.030;2024-02-26T00:00:42;33.53;;;32.70;;
80104;SDS011;69865;47.648;19.030;2024-02-26T00:01:23;33.90;;;32.90;;
80104;SDS011;69865;47.648;19.030;2024-02-26T00:01:59;33.73;;;32.70;;
80104;SDS011;69865;47.648;19.030;2024-02-26T00:02:36;32.63;;;31.60;;
80104;SDS011;69865;47.648;19.030;2024-02-26T00:03:16;34.30;;;33.27;;
80104;SDS011;69865;47.648;19.030;2024-02-26T00:03:48;34.73;;;33.77;;
80104;SDS011;69865;47.648;19.030;2024-02-26T00:04:23;35.13;;;34.30;;
80104;SDS011;69865;47.648;19.030;2024-02-26T00:04:55;32.20;;;31.93;;
80104;SDS011;69865;47.648;19.030;2024-02-26T00:05:31;33.97;;;33.37;;
80104;SDS011;69865;47.648;19.030;2024-02-26T00:06:04;33.43;;;32.80;;
80104;SDS011;69865;47.648;19.030;2024-02-26T00:06:40;33.73;;;32.77;;
80104;SDS011;69865;47.648;19.030;2024-02-26T00:07:15;34.03;;;32.97;;
80104;SDS011;69865;47.648;19.030;2024-02-26T00:07:51;33.83;;;32.83;;
80104;SDS011;69865;47.648;19.030;2024-02-26T00:08:26;33.80;;;32.80;;
80104;SDS011;69865;47.648;19.030;2024-02-26T00:09:02;34.37;;;33.10;;
80104;SDS011;69865;47.648;19.030;2024-02-26T00:09:37;35.30;;;34.03;;
80104;SDS011;69865;47.648;19.030;2024-02-26T00:10:12;33.33;;;32.83;;
80104;SDS011;69865;47.648;19.030;2024-02-26T00:10:50;33.23;;;32.50;;
80104;SDS011;69865;47.648;19.030;2024-02-26T00:11:25;35.00;;;34.10;;
80104;SDS011;69865;47.648;19.030;2024-02-26T00:11:59;34.20;;;33.20;;
80104;SDS011;69865;47.648;19.030;2024-02-26T00:12:31;35.77;;;34.50;;
80104;SDS011;69865;47.648;19.030;2024-02-26T00:13:03;34.03;;;33.03;;
80104;SDS011;69865;47.648;19.030;2024-02-26T00:13:44;33.47;;;32.53;;
80104;SDS011;69865;47.648;19.030;2024-02-26T00:14:19;34.23;;;33.17;;
80104;SDS011;69865;47.648;19.030;2024-02-26T00:14:51;34.63;;;33.37;;
80104;SDS011;69865;47.648;19.030;2024-02-26T00:15:31;33.40;;;32.53;;
80104;SDS011;69865;47.648;19.030;2024-02-26T00:16:06;33.23;;;32.87;;
80104;SDS011;69865;47.648;19.030;2024-02-26T00:16:40;30.93;;;30.37;;
80104;SDS011;69865;47.648;19.030;2024-02-26T00:17:13;33.97;;;33.07;;
80104;SDS011;69865;47.648;19.030;2024-02-26T00:17:47;33.87;;;32.87;;
80104;SDS011;69865;47.648;19.030;2024-02-26T00:18:20;33.73;;;32.67;;
80104;SDS011;69865;47.648;19.030;2024-02-26T00:18:53;35.00;;;33.93;;
80104;SDS011;69865;47.648;19.030;2024-02-26T00:19:26;35.63;;;34.70;;
80104;SDS011;69865;47.648;19.030;2024-02-26T00:20:01;36.27;;;35.27;;
80104;SDS011;69865;47.648;19.030;2024-02-26T00:20:33;36.77;;;35.57;;
80104;SDS011;69865;47.648;19.030;2024-02-26T00:21:08;35.80;;;34.60;;
80104;SDS011;69865;47.648;19.030;2024-02-26T00:21:45;36.83;;;35.40;;
80104;SDS011;69865;47.648;19.030;2024-02-26T00:22:17;36.83;;;35.53;;
80104;SDS011;69865;47.648;19.030;2024-02-26T00:22:54;36.63;;;35.33;;
80104;SDS011;69865;47.648;19.030;2024-02-26T00:23:26;37.53;;;36.33;;
80104;SDS011;69865;47.648;19.030;2024-02-26T00:24:05;36.00;;;34.83;;
80104;SDS011;69865;47.648;19.030;2024-02-26T00:24:44;35.63;;;34.73;;
80104;SDS011;69865;47.648;19.030;2024-02-26T00:25:18;35.00;;;34.07;;
80104;SDS011;69865;47.648;19.030;2024-02-26T00:25:54;36.23;;;35.13;;
80104;SDS011;69865;47.648;19.030;2024-02-26T00:26:26;35.20;;;34.17;;
80104;SDS011;69865;47.648;19.030;2024-02-26T00:27:05;33.57;;;33.27;;
80104;SDS011;69865;47.648;19.030;2024-02-26T00:27:37;36.00;;;35.10;;
80104;SDS011;69865;47.648;19.030;2024-02-26T00:28:09;35.43;;;34.50;;
80104;SDS011;69865;47.648;19.030;2024-02-26T00:28:42;36.20;;;35.27;;
80104;SDS011;69865;47.648;19.030;2024-02-26T00:29:16;36.17;;;35.13;;
80104;SDS011;69865;47.648;19.030;2024-02-26T00:29:48;37.47;;;36.27;;
80104;SDS011;69865;47.648;19.030;2024-02-26T00:30:23;35.80;;;34.67;;
80104;SDS011;69865;47.648;19.030;2024-02-26T00:30:55;35.87;;;34.50;;
80104;SDS011;69865;47.648;19.030;2024-02-26T00:31:31;37.60;;;36.27;;
80104;SDS011;69865;47.648;19.030;2024-02-26T00:32:05;35.50;;;34.40;;
80104;SDS011;69865;47.648;19.030;2024-02-26T00:32:38;36.90;;;35.93;;
80104;SDS011;69865;47.648;19.030;2024-02-26T00:33:16;38.33;;;37.03;;
80104;SDS011;69865;47.648;19.030;2024-02-26T00:33:49;36.67;;;35.77;;
80104;SDS011;69865;47.648;19.030;2024-02-26T00:34:25;35.10;;;34.47;;
80104;SDS011;69865;47.648;19.030;2024-02-26T00:34:57;36.30;;;35.47;;
80104;SDS011;69865;47.648;19.030;2024-02-26T00:35:29;37.33;;;36.10;;
80104;SDS011;69865;47.648;19.030;2024-02-26T00:36:04;37.40;;;36.07;;
80104;SDS011;69865;47.648;19.030;2024-02-26T00:36:48;36.07;;;35.03;;
80104;SDS011;69865;47.648;19.030;2024-02-26T00:37:25;35.40;;;34.73;;
80104;SDS011;69865;47.648;19.030;2024-02-26T00:37:57;35.10;;;34.10;;
80104;SDS011;69865;47.648;19.030;2024-02-26T00:38:32;33.60;;;33.03;;
80104;SDS011;69865;47.648;19.030;2024-02-26T00:39:04;35.33;;;34.80;;
80104;SDS011;69865;47.648;19.030;2024-02-26T00:39:40;36.70;;;35.90;;
80104;SDS011;69865;47.648;19.030;2024-02-26T00:40:15;35.17;;;34.47;;
80104;SDS011;69865;47.648;19.030;2024-02-26T00:40:51;36.63;;;35.47;;
80104;SDS011;69865;47.648;19.030;2024-02-26T00:41:32;36.93;;;35.67;;
80104;SDS011;69865;47.648;19.030;2024-02-26T00:42:06;35.93;;;34.77;;
80104;SDS011;69865;47.648;19.030;2024-02-26T00:42:38;35.30;;;34.23;;
80104;SDS011;69865;47.648;19.030;2024-02-26T00:43:14;34.77;;;33.80;;
80104;SDS011;69865;47.648;19.030;2024-02-26T00:43:48;34.80;;;33.90;;
80104;SDS011;69865;47.648;19.030;2024-02-26T00:44:20;36.60;;;35.47;;
80104;SDS011;69865;47.648;19.030;2024-02-26T00:44:52;36.57;;;35.30;;
80104;SDS011;69865;47.648;19.030;2024-02-26T00:45:27;36.77;;;35.37;;
80104;SDS011;69865;47.648;19.030;2024-02-26T00:46:01;36.63;;;35.17;;
80104;SDS011;69865;47.648;19.030;2024-02-26T00:46:38;35.80;;;34.57;;
80104;SDS011;69865;47.648;19.030;2024-02-26T00:47:10;36.60;;;35.50;;
80104;SDS011;69865;47.648;19.030;2024-02-26T00:47:42;35.47;;;34.50;;
80104;SDS011;69865;47.648;19.030;2024-02-26T00:48:14;33.60;;;32.97;;
80104;SDS011;69865;47.648;19.030;2024-02-26T00:48:50;32.80;;;32.00;;
80104;SDS011;69865;47.648;19.030;2024-02-26T00:49:24;33.80;;;32.93;;
80104;SDS011;69865;47.648;19.030;2024-02-26T00:49:56;35.67;;;34.70;;
80104;SDS011;69865;47.648;19.030;2024-02-26T00:50:28;35.37;;;34.50;;
80104;SDS011;69865;47.648;19.030;2024-02-26T00:51:01;34.03;;;33.73;;
80104;SDS011;69865;47.648;19.030;2024-02-26T00:51:38;33.27;;;32.90;;
80104;SDS011;69865;47.648;19.030;2024-02-26T00:52:16;34.77;;;33.80;;
80104;SDS011;69865;47.648;19.030;2024-02-26T00:52:51;34.53;;;33.53;;
80104;SDS011;69865;47.648;19.030;2024-02-26T00:53:29;34.23;;;33.33;;
80104;SDS011;69865;47.648;19.030;2024-02-26T00:54:01;35.23;;;34.20;;
80104;SDS011;69865;47.648;19.030;2024-02-26T00:54:37;34.13;;;33.13;;
80104;SDS011;69865;47.648;19.030;2024-02-26T00:55:13;34.83;;;33.87;;
80104;SDS011;69865;47.648;19.030;2024-02-26T00:55:48;34.90;;;33.77;;
80104;SDS011;69865;47.648;19.030;2024-02-26T00:56:22;34.93;;;33.93;;
80104;SDS011;69865;47.648;19.030;2024-02-26T00:56:54;34.20;;;33.43;;
80104;SDS011;69865;47.648;19.030;2024-02-26T00:57:26;35.57;;;35.00;;
80104;SDS011;69865;47.648;19.030;2024-02-26T00:58:11;34.87;;;34.03;;
80104;SDS011;69865;47.648;19.030;2024-02-26T00:58:46;33.67;;;32.80;;
80104;SDS011;69865;47.648;19.030;2024-02-26T00:59:21;34.50;;;33.33;;
80104;SDS011;69865;47.648;19.030;2024-02-26T00:59:58;35.90;;;34.73;;
80104;SDS011;69865;47.648;19.030;2024-02-26T01:00:33;36.07;;;34.87;;
80104;SDS011;69865;47.648;19.030;2024-02-26T01:01:08;35.93;;;34.87;;
80104;SDS011;69865;47.648;19.030;2024-02-26T01:01:43;34.10;;;33.10;;
80104;SDS011;69865;47.648;19.030;2024-02-26T01:02:17;34.30;;;33.37;;
80104;SDS011;69865;47.648;19.030;2024-02-26T01:02:54;34.63;;;34.03;;
80104;SDS011;69865;47.648;19.030;2024-02-26T01:03:38;35.73;;;34.77;;
80104;SDS011;69865;47.648;19.030;2024-02-26T01:04:12;35.20;;;34.17;;
80104;SDS011;69865;47.648;19.030;2024-02-26T01:04:50;34.13;;;33.30;;
80104;SDS011;69865;47.648;19.030;2024-02-26T01:05:25;35.37;;;34.47;;
80104;SDS011;69865;47.648;19.030;2024-02-26T01:05:57;34.50;;;33.47;;
80104;SDS011;69865;47.648;19.030;2024-02-26T01:06:30;34.90;;;33.67;;
80104;SDS011;69865;47.648;19.030;2024-02-26T01:07:03;34.43;;;33.27;;
80104;SDS011;69865;47.648;19.030;2024-02-26T01:07:39;33.83;;;32.90;;
80104;SDS011;69865;47.648;19.030;2024-02-26T01:08:11;33.43;;;32.67;;
80104;SDS011;69865;47.648;19.030;2024-02-26T01:08:50;34.57;;;33.40;;
80104;SDS011;69865;47.648;19.030;2024-02-26T01:09:25;34.80;;;33.60;;
80104;SDS011;69865;47.648;19.030;2024-02-26T01:09:57;35.20;;;34.00;;
80104;SDS011;69865;47.648;19.030;2024-02-26T01:10:31;33.70;;;32.93;;
80104;SDS011;69865;47.648;19.030;2024-02-26T01:11:06;33.13;;;31.97;;
80104;SDS011;69865;47.648;19.030;2024-02-26T01:11:40;33.93;;;33.07;;
80104;SDS011;69865;47.648;19.030;2024-02-26T01:12:15;33.57;;;32.93;;
80104;SDS011;69865;47.648;19.030;2024-02-26T01:12:47;34.23;;;33.33;;
80104;SDS011;69865;47.648;19.030;2024-02-26T01:13:23;32.63;;;32.23;;
80104;SDS011;69865;47.648;19.030;2024-02-26T01:13:58;32.43;;;32.07;;
80104;SDS011;69865;47.648;19.030;2024-02-26T01:14:32;33.90;;;32.87;;
80104;SDS011;69865;47.648;19.030;2024-02-26T01:15:07;34.23;;;32.97;;
80104;SDS011;69865;47.648;19.030;2024-02-26T01:15:42;34.20;;;32.97;;
80104;SDS011;69865;47.648;19.030;2024-02-26T01:16:18;34.17;;;32.97;;
80104;SDS011;69865;47.648;19.030;2024-02-26T01:16:51;33.47;;;32.40;;
80104;SDS011;69865;47.648;19.030;2024-02-26T01:17:31;32.93;;;32.20;;
80104;SDS011;69865;47.648;19.030;2024-02-26T01:18:11;31.30;;;30.63;;
80104;SDS011;69865;47.648;19.030;2024-02-26T01:18:44;31.43;;;30.90;;
80104;SDS011;69865;47.648;19.030;2024-02-26T01:19:16;31.03;;;30.40;;
80104;SDS011;69865;47.648;19.030;2024-02-26T01:19:55;31.57;;;30.87;;
80104;SDS011;69865;47.648;19.030;2024-02-26T01:20:33;32.10;;;31.53;;
80104;SDS011;69865;47.648;19.030;2024-02-26T01:21:18;31.80;;;31.03;;
80104;SDS011;69865;47.648;19.030;2024-02-26T01:21:50;32.13;;;31.40;;
80104;SDS011;69865;47.648;19.030;2024-02-26T01:22:37;32.53;;;31.53;;
80104;SDS011;69865;47.648;19.030;2024-02-26T01:23:09;31.97;;;31.23;;
80104;SDS011;69865;47.648;19.030;2024-02-26T01:23:41;32.27;;;31.63;;
80104;SDS011;69865;47.648;19.030;2024-02-26T01:24:15;32.53;;;32.00;;
80104;SDS011;69865;47.648;19.030;2024-02-26T01:24:53;33.23;;;32.13;;
80104;SDS011;69865;47.648;19.030;2024-02-26T01:25:27;32.13;;;31.53;;
80104;SDS011;69865;47.648;19.030;2024-02-26T01:25:59;32.60;;;31.40;;
80104;SDS011;69865;47.648;19.030;2024-02-26T01:26:34;33.03;;;31.73;;
80104;SDS011;69865;47.648;19.030;2024-02-26T01:27:08;30.67;;;29.43;;
80104;SDS011;69865;47.648;19.030;2024-02-26T01:27:43;31.13;;;30.03;;
80104;SDS011;69865;47.648;19.030;2024-02-26T01:28:18;30.67;;;29.63;;
80104;SDS011;69865;47.648;19.030;2024-02-26T01:28:53;29.17;;;28.40;;
80104;SDS011;69865;47.648;19.030;2024-02-26T01:29:28;30.13;;;29.40;;
80104;SDS011;69865;47.648;19.030;2024-02-26T01:30:05;31.03;;;30.07;;
80104;SDS011;69865;47.648;19.030;2024-02-26T01:30:41;28.87;;;27.87;;
80104;SDS011;69865;47.648;19.030;2024-02-26T01:31:18;28.90;;;27.80;;
80104;SDS011;69865;47.648;19.030;2024-02-26T01:31:52;28.53;;;27.93;;
80104;SDS011;69865;47.648;19.030;2024-02-26T01:32:25;29.13;;;28.43;;
80104;SDS011;69865;47.648;19.030;2024-02-26T01:32:59;28.93;;;28.23;;
80104;SDS011;69865;47.648;19.030;2024-02-26T01:33:31;29.57;;;28.80;;
80104;SDS011;69865;47.648;19.030;2024-02-26T01:34:10;28.73;;;28.23;;
80104;SDS011;69865;47.648;19.030;2024-02-26T01:34:42;28.23;;;27.90;;
80104;SDS011;69865;47.648;19.030;2024-02-26T01:35:17;28.60;;;27.73;;
80104;SDS011;69865;47.648;19.030;2024-02-26T01:35:49;29.00;;;28.23;;
80104;SDS011;69865;47.648;19.030;2024-02-26T01:36:21;27.97;;;27.23;;
80104;SDS011;69865;47.648;19.030;2024-02-26T01:36:53;28.67;;;27.83;;
80104;SDS011;69865;47.648;19.030;2024-02-26T01:37:29;29.57;;;28.63;;
80104;SDS011;69865;47.648;19.030;2024-02-26T01:38:03;28.73;;;27.80;;
80104;SDS011;69865;47.648;19.030;2024-02-26T01:38:41;28.97;;;28.00;;
80104;SDS011;69865;47.648;19.030;2024-02-26T01:39:16;28.00;;;27.00;;
80104;SDS011;69865;47.648;19.030;2024-02-26T01:39:48;28.00;;;27.13;;
80104;SDS011;69865;47.648;19.030;2024-02-26T01:40:20;28.83;;;27.80;;
80104;SDS011;69865;47.648;19.030;2024-02-26T01:40:55;28.93;;;27.87;;
80104;SDS011;69865;47.648;19.030;2024-02-26T01:41:27;27.87;;;27.17;;
80104;SDS011;69865;47.648;19.030;2024-02-26T01:42:02;27.63;;;26.87;;
80104;SDS011;69865;47.648;19.030;2024-02-26T01:42:42;27.83;;;26.90;;
80104;SDS011;69865;47.648;19.030;2024-02-26T01:43:14;27.97;;;27.10;;
80104;SDS011;69865;47.648;19.030;2024-02-26T01:43:49;28.77;;;27.80;;
80104;SDS011;69865;47.648;19.030;2024-02-26T01:44:27;28.20;;;27.37;;
80104;SDS011;69865;47.648;19.030;2024-02-26T01:45:03;28.17;;;27.30;;
80104;SDS011;69865;47.648;19.030;2024-02-26T01:45:44;27.33;;;26.63;;
80104;SDS011;69865;47.648;19.030;2024-02-26T01:46:20;27.30;;;26.67;;
80104;SDS011;69865;47.648;19.030;2024-02-26T01:46:54;27.07;;;26.70;;
80104;SDS011;69865;47.648;19.030;2024-02-26T01:47:29;28.73;;;27.93;;
80104;SDS011;69865;47.648;19.030;2024-02-26T01:48:14;29.00;;;28.00;;
80104;SDS011;69865;47.648;19.030;2024-02-26T01:48:46;27.50;;;26.73;;
80104;SDS011;69865;47.648;19.030;2024-02-26T01:49:22;27.43;;;26.67;;
80104;SDS011;69865;47.648;19.030;2024-02-26T01:50:03;24.57;;;24.10;;
80104;SDS011;69865;47.648;19.030;2024-02-26T01:50:37;25.20;;;24.53;;
80104;SDS011;69865;47.648;19.030;2024-02-26T01:51:10;26.57;;;25.67;;
80104;SDS011;69865;47.648;19.030;2024-02-26T01:51:49;26.93;;;25.97;;
80104;SDS011;69865;47.648;19.030;2024-02-26T01:52:21;25.77;;;24.90;;
80104;SDS011;69865;47.648;19.030;2024-02-26T01:52:59;26.80;;;25.93;;
80104;SDS011;69865;47.648;19.030;2024-02-26T01:53:34;26.70;;;25.87;;
80104;SDS011;69865;47.648;19.030;2024-02-26T01:54:06;26.87;;;26.13;;
80104;SDS011;69865;47.648;19.030;2024-02-26T01:54:52;25.70;;;24.93;;
80104;SDS011;69865;47.648;19.030;2024-02-26T01:55:24;25.00;;;24.17;;
80104;SDS011;69865;47.648;19.030;2024-02-26T01:56:04;25.20;;;24.43;;
80104;SDS011;69865;47.648;19.030;2024-02-26T01:56:40;26.13;;;25.50;;
80104;SDS011;69865;47.648;19.030;2024-02-26T01:57:16;25.10;;;24.33;;
80104;SDS011;69865;47.648;19.030;2024-02-26T01:57:48;26.70;;;25.63;;
80104;SDS011;69865;47.648;19.030;2024-02-26T01:58:25;26.03;;;24.80;;
80104;SDS011;69865;47.648;19.030;2024-02-26T01:59:07;26.30;;;25.33;;
80104;SDS011;69865;47.648;19.030;2024-02-26T01:59:40;25.20;;;24.53;;
80104;SDS011;69865;47.648;19.030;2024-02-26T02:00:24;25.77;;;25.10;;
80104;SDS011;69865;47.648;19.030;2024-02-26T02:00:58;24.10;;;23.37;;
80104;SDS011;69865;47.648;19.030;2024-02-26T02:01:32;25.53;;;24.67;;
80104;SDS011;69865;47.648;19.030;2024-02-26T02:02:10;24.47;;;23.60;;
80104;SDS011;69865;47.648;19.030;2024-02-26T02:02:53;25.50;;;24.67;;
80104;SDS011;69865;47.648;19.030;2024-02-26T02:03:26;24.87;;;24.27;;
80104;SDS011;69865;47.648;19.030;2024-02-26T02:04:10;24.40;;;24.13;;
80104;SDS011;69865;47.648;19.030;2024-02-26T02:04:52;25.40;;;24.73;;
80104;SDS011;69865;47.648;19.030;2024-02-26T02:05:33;25.00;;;24.23;;
80104;SDS011;69865;47.648;19.030;2024-02-26T02:06:07;24.90;;;24.17;;
80104;SDS011;69865;47.648;19.030;2024-02-26T02:06:47;25.30;;;24.93;;
80104;SDS011;69865;47.648;19.030;2024-02-26T02:07:25;26.50;;;25.73;;
80104;SDS011;69865;47.648;19.030;2024-02-26T02:08:00;25.57;;;24.70;;
80104;SDS011;69865;47.648;19.030;2024-02-26T02:08:40;24.77;;;24.00;;
80104;SDS011;69865;47.648;19.030;2024-02-26T02:09:15;23.70;;;23.27;;
80104;SDS011;69865;47.648;19.030;2024-02-26T02:09:57;23.30;;;22.80;;
80104;SDS011;69865;47.648;19.030;2024-02-26T02:10:32;24.40;;;23.70;;
80104;SDS011;69865;47.648;19.030;2024-02-26T02:11:09;23.80;;;23.03;;
80104;SDS011;69865;47.648;19.030;2024-02-26T02:11:52;25.20;;;24.37;;
80104;SDS011;69865;47.648;19.030;2024-02-26T02:12:36;24.23;;;23.40;;
80104;SDS011;69865;47.648;19.030;2024-02-26T02:13:14;24.27;;;23.40;;
80104;SDS011;69865;47.648;19.030;2024-02-26T02:13:48;24.53;;;23.83;;
80104;SDS011;69865;47.648;19.030;2024-02-26T02:14:23;23.77;;;23.43;;
80104;SDS011;69865;47.648;19.030;2024-02-26T02:15:05;24.83;;;24.07;;
80104;SDS011;69865;47.648;19.030;2024-02-26T02:15:44;25.27;;;24.53;;
80104;SDS011;69865;47.648;19.030;2024-02-26T02:16:20;24.83;;;24.00;;
80104;SDS011;69865;47.648;19.030;2024-02-26T02:16:52;24.07;;;23.13;;
80104;SDS011;69865;47.648;19.030;2024-02-26T02:17:27;23.50;;;23.07;;
80104;SDS011;69865;47.648;19.030;2024-02-26T02:18:13;23.43;;;23.17;;
80104;SDS011;69865;47.648;19.030;2024-02-26T02:19:04;24.07;;;23.40;;
80104;SDS011;69865;47.648;19.030;2024-02-26T02:19:41;23.40;;;22.87;;
80104;SDS011;69865;47.648;19.030;2024-02-26T02:20:26;23.40;;;22.73;;
80104;SDS011;69865;47.648;19.030;2024-02-26T02:21:16;23.90;;;23.17;;
80104;SDS011;69865;47.648;19.030;2024-02-26T02:21:49;23.37;;;22.93;;
80104;SDS011;69865;47.648;19.030;2024-02-26T02:22:28;22.60;;;22.20;;
80104;SDS011;69865;47.648;19.030;2024-02-26T02:23:02;21.63;;;21.13;;
80104;SDS011;69865;47.648;19.030;2024-02-26T02:23:47;23.23;;;22.60;;
80104;SDS011;69865;47.648;19.030;2024-02-26T02:24:23;23.10;;;22.40;;
80104;SDS011;69865;47.648;19.030;2024-02-26T02:24:55;24.80;;;24.17;;
80104;SDS011;69865;47.648;19.030;2024-02-26T02:25:31;24.17;;;23.53;;
80104;SDS011;69865;47.648;19.030;2024-02-26T02:26:06;23.73;;;23.07;;
80104;SDS011;69865;47.648;19.030;2024-02-26T02:26:56;24.93;;;24.03;;
80104;SDS011;69865;47.648;19.030;2024-02-26T02:27:35;24.27;;;23.87;;
80104;SDS011;69865;47.648;19.030;2024-02-26T02:28:07;23.33;;;22.87;;
80104;SDS011;69865;47.648;19.030;2024-02-26T02:28:43;22.93;;;22.60;;
80104;SDS011;69865;47.648;19.030;2024-02-26T02:29:29;22.77;;;22.10;;
80104;SDS011;69865;47.648;19.030;2024-02-26T02:30:06;25.23;;;24.20;;
80104;SDS011;69865;47.648;19.030;2024-02-26T02:30:51;23.90;;;22.93;;
80104;SDS011;69865;47.648;19.030;2024-02-26T02:31:28;24.90;;;23.97;;
80104;SDS011;69865;47.648;19.030;2024-02-26T02:32:11;24.10;;;23.27;;
80104;SDS011;69865;47.648;19.030;2024-02-26T02:32:52;23.87;;;23.07;;
80104;SDS011;69865;47.648;19.030;2024-02-26T02:33:30;23.17;;;22.70;;
80104;SDS011;69865;47.648;19.030;2024-02-26T02:34:14;23.00;;;22.80;;
80104;SDS011;69865;47.648;19.030;2024-02-26T02:34:54;23.23;;;23.20;;
80104;SDS011;69865;47.648;19.030;2024-02-26T02:35:33;24.00;;;23.47;;
80104;SDS011;69865;47.648;19.030;2024-02-26T02:36:05;24.27;;;23.57;;
80104;SDS011;69865;47.648;19.030;2024-02-26T02:36:53;23.57;;;22.80;;
80104;SDS011;69865;47.648;19.030;2024-02-26T02:37:31;24.60;;;23.93;;
80104;SDS011;69865;47.648;19.030;2024-02-26T02:38:08;23.77;;;22.90;;
80104;SDS011;69865;47.648;19.030;2024-02-26T02:38:49;24.57;;;23.57;;
80104;SDS011;69865;47.648;19.030;2024-02-26T02:39:25;25.53;;;24.60;;
80104;SDS011;69865;47.648;19.030;2024-02-26T02:39:57;24.03;;;23.47;;
80104;SDS011;69865;47.648;19.030;2024-02-26T02:40:40;21.03;;;20.97;;
80104;SDS011;69865;47.648;19.030;2024-02-26T02:41:30;22.00;;;21.83;;
80104;SDS011;69865;47.648;19.030;2024-02-26T02:42:06;23.83;;;23.37;;
80104;SDS011;69865;47.648;19.030;2024-02-26T02:42:41;22.47;;;22.07;;
80104;SDS011;69865;47.648;19.030;2024-02-26T02:43:13;23.93;;;23.33;;
80104;SDS011;69865;47.648;19.030;2024-02-26T02:43:48;24.77;;;23.90;;
80104;SDS011;69865;47.648;19.030;2024-02-26T02:44:29;22.37;;;22.30;;
80104;SDS011;69865;47.648;19.030;2024-02-26T02:45:03;22.60;;;22.40;;
80104;SDS011;69865;47.648;19.030;2024-02-26T02:45:36;23.27;;;23.23;;
80104;SDS011;69865;47.648;19.030;2024-02-26T02:46:10;23.43;;;23.30;;
80104;SDS011;69865;47.648;19.030;2024-02-26T02:46:42;24.47;;;24.00;;
80104;SDS011;69865;47.648;19.030;2024-02-26T02:47:15;24.40;;;23.97;;
80104;SDS011;69865;47.648;19.030;2024-02-26T02:47:54;24.43;;;23.63;;
80104;SDS011;69865;47.648;19.030;2024-02-26T02:48:28;24.73;;;24.20;;
80104;SDS011;69865;47.648;19.030;2024-02-26T02:49:07;23.63;;;23.50;;
80104;SDS011;69865;47.648;19.030;2024-02-26T02:49:46;23.90;;;23.73;;
80104;SDS011;69865;47.648;19.030;2024-02-26T02:50:23;23.13;;;22.97;;
80104;SDS011;69865;47.648;19.030;2024-02-26T02:50:56;22.70;;;22.50;;
80104;SDS011;69865;47.648;19.030;2024-02-26T02:51:30;23.47;;;22.67;;
80104;SDS011;69865;47.648;19.030;2024-02-26T02:52:07;25.13;;;24.00;;
80104;SDS011;69865;47.648;19.030;2024-02-26T02:52:42;25.17;;;24.17;;
80104;SDS011;69865;47.648;19.030;2024-02-26T02:53:27;22.90;;;22.67;;
80104;SDS011;69865;47.648;19.030;2024-02-26T02:54:07;24.43;;;23.87;;
80104;SDS011;69865;47.648;19.030;2024-02-26T02:54:42;26.20;;;25.47;;
80104;SDS011;69865;47.648;19.030;2024-02-26T02:55:23;25.27;;;24.37;;
80104;SDS011;69865;47.648;19.030;2024-02-26T02:56:03;23.53;;;22.77;;
80104;SDS011;69865;47.648;19.030;2024-02-26T02:56:40;23.57;;;22.63;;
80104;SDS011;69865;47.648;19.030;2024-02-26T02:57:21;23.73;;;23.17;;
80104;SDS011;69865;47.648;19.030;2024-02-26T02:58:07;21.97;;;21.87;;
80104;SDS011;69865;47.648;19.030;2024-02-26T02:58:46;22.73;;;22.67;;
80104;SDS011;69865;47.648;19.030;2024-02-26T02:59:31;23.33;;;22.87;;
80104;SDS011;69865;47.648;19.030;2024-02-26T03:00:05;24.23;;;23.67;;
80104;SDS011;69865;47.648;19.030;2024-02-26T03:00:43;24.37;;;23.63;;
80104;SDS011;69865;47.648;19.030;2024-02-26T03:01:26;23.87;;;23.13;;
80104;SDS011;69865;47.648;19.030;2024-02-26T03:02:02;23.33;;;22.57;;
80104;SDS011;69865;47.648;19.030;2024-02-26T03:02:38;22.63;;;21.83;;
80104;SDS011;69865;47.648;19.030;2024-02-26T03:03:23;22.60;;;21.93;;
80104;SDS011;69865;47.648;19.030;2024-02-26T03:04:00;23.70;;;23.57;;
80104;SDS011;69865;47.648;19.030;2024-02-26T03:04:38;23.03;;;22.67;;
80104;SDS011;69865;47.648;19.030;2024-02-26T03:05:18;23.20;;;22.50;;
80104;SDS011;69865;47.648;19.030;2024-02-26T03:05:54;24.17;;;23.63;;
80104;SDS011;69865;47.648;19.030;2024-02-26T03:06:41;24.80;;;24.00;;
80104;SDS011;69865;47.648;19.030;2024-02-26T03:07:20;23.43;;;22.63;;
80104;SDS011;69865;47.648;19.030;2024-02-26T03:08:03;22.70;;;22.27;;
80104;SDS011;69865;47.648;19.030;2024-02-26T03:08:39;23.13;;;22.80;;
80104;SDS011;69865;47.648;19.030;2024-02-26T03:09:11;23.23;;;22.47;;
80104;SDS011;69865;47.648;19.030;2024-02-26T03:09:52;22.40;;;21.57;;
80104;SDS011;69865;47.648;19.030;2024-02-26T03:10:37;23.03;;;22.17;;
80104;SDS011;69865;47.648;19.030;2024-02-26T03:11:13;23.47;;;22.57;;
80104;SDS011;69865;47.648;19.030;2024-02-26T03:11:48;22.87;;;22.13;;
80104;SDS011;69865;47.648;19.030;2024-02-26T03:12:31;22.83;;;22.57;;
80104;SDS011;69865;47.648;19.030;2024-02-26T03:13:20;22.30;;;22.23;;
80104;SDS011;69865;47.648;19.030;2024-02-26T03:13:54;22.57;;;22.03;;
80104;SDS011;69865;47.648;19.030;2024-02-26T03:14:31;22.53;;;21.87;;
80104;SDS011;69865;47.648;19.030;2024-02-26T03:15:12;23.37;;;22.90;;
80104;SDS011;69865;47.648;19.030;2024-02-26T03:15:47;22.27;;;21.90;;
80104;SDS011;69865;47.648;19.030;2024-02-26T03:16:20;22.93;;;22.53;;
80104;SDS011;69865;47.648;19.030;2024-02-26T03:16:55;23.70;;;23.60;;
80104;SDS011;69865;47.648;19.030;2024-02-26T03:17:33;23.10;;;22.83;;
80104;SDS011;69865;47.648;19.030;2024-02-26T03:18:26;22.43;;;22.40;;
80104;SDS011;69865;47.648;19.030;2024-02-26T03:19:06;23.17;;;22.60;;
80104;SDS011;69865;47.648;19.030;2024-02-26T03:19:48;21.47;;;20.93;;
80104;SDS011;69865;47.648;19.030;2024-02-26T03:20:26;21.63;;;21.43;;
80104;SDS011;69865;47.648;19.030;2024-02-26T03:21:20;23.30;;;22.77;;
80104;SDS011;69865;47.648;19.030;2024-02-26T03:22:00;23.40;;;23.07;;
80104;SDS011;69865;47.648;19.030;2024-02-26T03:22:46;23.87;;;23.17;;
80104;SDS011;69865;47.648;19.030;2024-02-26T03:23:23;23.77;;;22.97;;
80104;SDS011;69865;47.648;19.030;2024-02-26T03:23:57;23.67;;;22.73;;
80104;SDS011;69865;47.648;19.030;2024-02-26T03:24:39;22.20;;;21.23;;
80104;SDS011;69865;47.648;19.030;2024-02-26T03:25:17;22.87;;;22.00;;
80104;SDS011;69865;47.648;19.030;2024-02-26T03:26:04;23.77;;;22.97;;
80104;SDS011;69865;47.648;19.030;2024-02-26T03:26:42;21.87;;;21.20;;
80104;SDS011;69865;47.648;19.030;2024-02-26T03:27:31;23.27;;;22.73;;
80104;SDS011;69865;47.648;19.030;2024-02-26T03:28:11;22.63;;;22.33;;
80104;SDS011;69865;47.648;19.030;2024-02-26T03:28:52;24.07;;;23.47;;
80104;SDS011;69865;47.648;19.030;2024-02-26T03:29:30;22.97;;;22.13;;
80104;SDS011;69865;47.648;19.030;2024-02-26T03:30:07;22.07;;;22.03;;
80104;SDS011;69865;47.648;19.030;2024-02-26T03:30:45;22.17;;;21.97;;
80104;SDS011;69865;47.648;19.030;2024-02-26T03:31:21;22.87;;;22.27;;